sensor_id;sensor_type;location;lat;lon;timestamp;pressure;altitude;pressure_sealevel;temperature;humidity
74778;BME280;63298;53.164;8.610;2023-09-12T00:00:55;101299.91;;;23.97;71.04
74778;BME280;63298;53.164;8.610;2023-09-12T00:03:22;101271.22;;;23.81;71.28
74778;BME280;63298;53.164;8.610;2023-09-12T00:05:55;101256.81;;;23.69;71.61
74778;BME280;63298;53.164;8.610;2023-09-12T00:08:21;101254.63;;;23.66;71.59
74778;BME280;63298;53.164;8.610;2023-09-12T00:10:46;101237.00;;;23.60;71.79
74778;BME280;63298;53.164;8.610;2023-09-12T00:13:11;101243.78;;;23.59;71.87
74778;BME280;63298;53.164;8.610;2023-09-12T00:15:37;101233.75;;;23.53;71.78
74778;BME280;63298;53.164;8.610;2023-09-12T00:18:02;101240.34;;;23.49;72.35
74778;BME280;63298;53.164;8.610;2023-09-12T00:20:28;101226.91;;;23.46;72.02
74778;BME280;63298;53.164;8.610;2023-09-12T00:22:53;101225.00;;;23.41;72.07
74778;BME280;63298;53.164;8.610;2023-09-12T00:25:18;101245.66;;;23.37;72.68
74778;BME280;63298;53.164;8.610;2023-09-12T00:27:43;101316.16;;;23.32;72.66
74778;BME280;63298;53.164;8.610;2023-09-12T00:30:09;101335.88;;;23.32;73.02
74778;BME280;63298;53.164;8.610;2023-09-12T00:32:35;101318.34;;;23.35;72.62
74778;BME280;63298;53.164;8.610;2023-09-12T00:35:00;101311.75;;;23.39;73.15
74778;BME280;63298;53.164;8.610;2023-09-12T00:37:25;101314.59;;;23.39;73.10
74778;BME280;63298;53.164;8.610;2023-09-12T00:39:50;101325.84;;;23.39;73.15
74778;BME280;63298;53.164;8.610;2023-09-12T00:42:16;101331.81;;;23.38;72.69
74778;BME280;63298;53.164;8.610;2023-09-12T00:44:41;101332.66;;;23.38;73.27
74778;BME280;63298;53.164;8.610;2023-09-12T00:47:08;101352.38;;;23.38;73.01
74778;BME280;63298;53.164;8.610;2023-09-12T00:49:35;101348.84;;;23.46;73.07
74778;BME280;63298;53.164;8.610;2023-09-12T00:52:01;101352.72;;;23.50;72.75
74778;BME280;63298;53.164;8.610;2023-09-12T00:54:26;101358.88;;;23.52;72.89
74778;BME280;63298;53.164;8.610;2023-09-12T00:56:52;101358.25;;;23.55;72.90
74778;BME280;63298;53.164;8.610;2023-09-12T00:59:18;101374.22;;;23.60;72.48
74778;BME280;63298;53.164;8.610;2023-09-12T01:01:43;101360.66;;;23.62;72.56
74778;BME280;63298;53.164;8.610;2023-09-12T01:04:10;101372.78;;;23.62;73.12
74778;BME280;63298;53.164;8.610;2023-09-12T01:06:36;101364.63;;;23.61;72.93
74778;BME280;63298;53.164;8.610;2023-09-12T01:09:03;101378.41;;;23.62;72.74
74778;BME280;63298;53.164;8.610;2023-09-12T01:11:29;101379.25;;;23.63;73.14
74778;BME280;63298;53.164;8.610;2023-09-12T01:13:55;101380.69;;;23.60;72.96
74778;BME280;63298;53.164;8.610;2023-09-12T01:16:20;101368.38;;;23.56;73.25
74778;BME280;63298;53.164;8.610;2023-09-12T01:18:45;101370.16;;;23.52;73.38
74778;BME280;63298;53.164;8.610;2023-09-12T01:24:17;101354.38;;;23.51;72.83
74778;BME280;63298;53.164;8.610;2023-09-12T01:29:23;101369.72;;;23.45;73.07
74778;BME280;63298;53.164;8.610;2023-09-12T01:31:50;101381.50;;;23.47;73.01
74778;BME280;63298;53.164;8.610;2023-09-12T01:34:16;101379.25;;;23.44;73.01
74778;BME280;63298;53.164;8.610;2023-09-12T01:36:41;101375.59;;;23.44;73.49
74778;BME280;63298;53.164;8.610;2023-09-12T01:39:07;101382.09;;;23.44;73.30
74778;BME280;63298;53.164;8.610;2023-09-12T01:41:35;101388.28;;;23.46;73.56
74778;BME280;63298;53.164;8.610;2023-09-12T01:44:05;101375.88;;;23.47;73.58
74778;BME280;63298;53.164;8.610;2023-09-12T01:46:32;101371.94;;;23.48;73.30
74778;BME280;63298;53.164;8.610;2023-09-12T01:49:00;101355.53;;;23.50;73.04
74778;BME280;63298;53.164;8.610;2023-09-12T01:51:25;101367.34;;;23.52;73.14
74778;BME280;63298;53.164;8.610;2023-09-12T01:53:53;101368.16;;;23.53;73.21
74778;BME280;63298;53.164;8.610;2023-09-12T01:56:19;101369.50;;;23.55;73.57
74778;BME280;63298;53.164;8.610;2023-09-12T01:58:45;101362.22;;;23.54;73.39
74778;BME280;63298;53.164;8.610;2023-09-12T02:01:11;101345.31;;;23.54;73.01
74778;BME280;63298;53.164;8.610;2023-09-12T02:03:36;101324.53;;;23.50;73.48
74778;BME280;63298;53.164;8.610;2023-09-12T02:06:02;101331.72;;;23.43;73.57
74778;BME280;63298;53.164;8.610;2023-09-12T02:08:27;101351.72;;;23.41;73.66
74778;BME280;63298;53.164;8.610;2023-09-12T02:10:52;101351.44;;;23.43;73.50
74778;BME280;63298;53.164;8.610;2023-09-12T02:13:17;101355.63;;;23.45;73.78
74778;BME280;63298;53.164;8.610;2023-09-12T02:15:43;101368.00;;;23.44;73.82
74778;BME280;63298;53.164;8.610;2023-09-12T02:18:08;101375.25;;;23.50;73.73
74778;BME280;63298;53.164;8.610;2023-09-12T02:20:38;101365.97;;;23.50;73.77
74778;BME280;63298;53.164;8.610;2023-09-12T02:23:03;101359.47;;;23.49;73.67
74778;BME280;63298;53.164;8.610;2023-09-12T02:25:29;101332.34;;;23.53;73.34
74778;BME280;63298;53.164;8.610;2023-09-12T02:27:54;101325.38;;;23.51;73.84
74778;BME280;63298;53.164;8.610;2023-09-12T02:30:19;101319.53;;;23.47;73.60
74778;BME280;63298;53.164;8.610;2023-09-12T02:32:45;101313.06;;;23.47;73.59
74778;BME280;63298;53.164;8.610;2023-09-12T02:35:10;101321.91;;;23.40;73.71
74778;BME280;63298;53.164;8.610;2023-09-12T02:37:35;101318.03;;;23.36;73.63
74778;BME280;63298;53.164;8.610;2023-09-12T02:40:01;101316.56;;;23.39;73.55
74778;BME280;63298;53.164;8.610;2023-09-12T02:42:27;101329.50;;;23.40;73.35
74778;BME280;63298;53.164;8.610;2023-09-12T02:44:52;101335.97;;;23.40;73.81
74778;BME280;63298;53.164;8.610;2023-09-12T02:47:17;101344.97;;;23.42;73.78
74778;BME280;63298;53.164;8.610;2023-09-12T02:49:43;101370.53;;;23.46;73.73
74778;BME280;63298;53.164;8.610;2023-09-12T02:52:08;101378.69;;;23.47;73.29
74778;BME280;63298;53.164;8.610;2023-09-12T02:54:34;101372.72;;;23.49;73.45
74778;BME280;63298;53.164;8.610;2023-09-12T02:56:59;101392.78;;;23.47;73.53
74778;BME280;63298;53.164;8.610;2023-09-12T02:59:24;101391.09;;;23.46;73.68
74778;BME280;63298;53.164;8.610;2023-09-12T03:01:50;101372.53;;;23.45;73.84
74778;BME280;63298;53.164;8.610;2023-09-12T03:04:15;101364.78;;;23.37;74.00
74778;BME280;63298;53.164;8.610;2023-09-12T03:06:40;101368.63;;;23.41;73.51
74778;BME280;63298;53.164;8.610;2023-09-12T03:09:06;101356.81;;;23.39;74.10
74778;BME280;63298;53.164;8.610;2023-09-12T03:11:31;101351.81;;;23.36;73.91
74778;BME280;63298;53.164;8.610;2023-09-12T03:13:56;101355.78;;;23.35;73.93
74778;BME280;63298;53.164;8.610;2023-09-12T03:16:22;101352.13;;;23.35;73.87
74778;BME280;63298;53.164;8.610;2023-09-12T03:18:47;101343.69;;;23.35;73.83
74778;BME280;63298;53.164;8.610;2023-09-12T03:21:13;101352.47;;;23.33;74.31
74778;BME280;63298;53.164;8.610;2023-09-12T03:23:38;101353.06;;;23.30;74.34
74778;BME280;63298;53.164;8.610;2023-09-12T03:26:04;101363.50;;;23.30;74.03
74778;BME280;63298;53.164;8.610;2023-09-12T03:28:31;101350.78;;;23.32;74.30
74778;BME280;63298;53.164;8.610;2023-09-12T03:31:07;101349.41;;;23.30;74.49
74778;BME280;63298;53.164;8.610;2023-09-12T03:33:33;101355.88;;;23.30;74.28
74778;BME280;63298;53.164;8.610;2023-09-12T03:35:58;101338.78;;;23.27;74.59
74778;BME280;63298;53.164;8.610;2023-09-12T03:38:23;101331.78;;;23.24;74.65
74778;BME280;63298;53.164;8.610;2023-09-12T03:40:49;101325.09;;;23.20;74.18
74778;BME280;63298;53.164;8.610;2023-09-12T03:43:14;101334.91;;;23.22;74.70
74778;BME280;63298;53.164;8.610;2023-09-12T03:45:39;101324.69;;;23.27;74.31
74778;BME280;63298;53.164;8.610;2023-09-12T03:48:05;101312.81;;;23.30;74.69
74778;BME280;63298;53.164;8.610;2023-09-12T03:50:30;101296.00;;;23.24;74.36
74778;BME280;63298;53.164;8.610;2023-09-12T03:52:56;101296.00;;;23.24;74.88
74778;BME280;63298;53.164;8.610;2023-09-12T03:55:21;101288.19;;;23.21;74.31
74778;BME280;63298;53.164;8.610;2023-09-12T03:57:46;101276.72;;;23.18;74.64
74778;BME280;63298;53.164;8.610;2023-09-12T04:00:12;101276.72;;;23.18;74.89
74778;BME280;63298;53.164;8.610;2023-09-12T04:02:38;101272.53;;;23.15;74.94
74778;BME280;63298;53.164;8.610;2023-09-12T04:05:03;101271.50;;;23.11;74.47
74778;BME280;63298;53.164;8.610;2023-09-12T04:07:28;101282.22;;;23.09;74.69
74778;BME280;63298;53.164;8.610;2023-09-12T04:09:54;101277.75;;;23.08;74.62
74778;BME280;63298;53.164;8.610;2023-09-12T04:12:19;101290.25;;;23.16;74.81
74778;BME280;63298;53.164;8.610;2023-09-12T04:14:44;101283.19;;;23.18;74.51
74778;BME280;63298;53.164;8.610;2023-09-12T04:17:10;101288.19;;;23.21;74.47
74778;BME280;63298;53.164;8.610;2023-09-12T04:19:35;101296.94;;;23.20;74.65
74778;BME280;63298;53.164;8.610;2023-09-12T04:22:00;101306.97;;;23.26;74.75
74778;BME280;63298;53.164;8.610;2023-09-12T04:24:25;101313.44;;;23.27;74.26
74778;BME280;63298;53.164;8.610;2023-09-12T04:26:51;101321.56;;;23.28;74.71
74778;BME280;63298;53.164;8.610;2023-09-12T04:29:16;101328.06;;;23.29;74.57
74778;BME280;63298;53.164;8.610;2023-09-12T04:31:41;101332.84;;;23.28;74.14
74778;BME280;63298;53.164;8.610;2023-09-12T04:34:07;101335.13;;;23.26;74.44
74778;BME280;63298;53.164;8.610;2023-09-12T04:36:32;101328.94;;;23.24;74.43
74778;BME280;63298;53.164;8.610;2023-09-12T04:38:57;101339.06;;;23.25;74.10
74778;BME280;63298;53.164;8.610;2023-09-12T04:41:23;101342.22;;;23.23;74.20
74778;BME280;63298;53.164;8.610;2023-09-12T04:43:48;101330.22;;;23.18;74.09
74778;BME280;63298;53.164;8.610;2023-09-12T04:46:13;101345.13;;;23.18;74.40
74778;BME280;63298;53.164;8.610;2023-09-12T04:48:39;101337.81;;;23.17;74.53
74778;BME280;63298;53.164;8.610;2023-09-12T04:51:04;101336.16;;;23.16;74.25
74778;BME280;63298;53.164;8.610;2023-09-12T04:53:30;101335.31;;;23.16;74.31
74778;BME280;63298;53.164;8.610;2023-09-12T04:55:55;101338.41;;;23.14;74.36
74778;BME280;63298;53.164;8.610;2023-09-12T04:58:20;101331.22;;;23.08;74.53
74778;BME280;63298;53.164;8.610;2023-09-12T05:00:46;101327.25;;;23.09;74.73
74778;BME280;63298;53.164;8.610;2023-09-12T05:03:11;101338.84;;;23.08;74.64
74778;BME280;63298;53.164;8.610;2023-09-12T05:05:36;101337.03;;;22.98;74.31
74778;BME280;63298;53.164;8.610;2023-09-12T05:08:02;101339.22;;;23.01;74.74
74778;BME280;63298;53.164;8.610;2023-09-12T05:10:28;101345.16;;;23.00;74.88
74778;BME280;63298;53.164;8.610;2023-09-12T05:12:53;101352.47;;;23.01;74.53
74778;BME280;63298;53.164;8.610;2023-09-12T05:15:18;101357.59;;;22.99;74.51
74778;BME280;63298;53.164;8.610;2023-09-12T05:17:43;101355.91;;;22.98;74.34
74778;BME280;63298;53.164;8.610;2023-09-12T05:20:09;101350.88;;;22.95;74.60
74778;BME280;63298;53.164;8.610;2023-09-12T05:22:35;101359.31;;;22.95;74.35
74778;BME280;63298;53.164;8.610;2023-09-12T05:25:00;101354.59;;;22.90;74.77
74778;BME280;63298;53.164;8.610;2023-09-12T05:27:25;101356.59;;;22.90;74.88
74778;BME280;63298;53.164;8.610;2023-09-12T05:29:50;101360.03;;;22.87;74.86
74778;BME280;63298;53.164;8.610;2023-09-12T05:32:16;101351.59;;;22.87;74.42
74778;BME280;63298;53.164;8.610;2023-09-12T05:34:41;101348.78;;;22.87;74.64
74778;BME280;63298;53.164;8.610;2023-09-12T05:37:06;101349.91;;;22.86;74.74
74778;BME280;63298;53.164;8.610;2023-09-12T05:39:32;101348.00;;;22.81;74.59
74778;BME280;63298;53.164;8.610;2023-09-12T05:41:57;101352.81;;;22.80;74.90
74778;BME280;63298;53.164;8.610;2023-09-12T05:44:22;101352.59;;;22.77;74.68
74778;BME280;63298;53.164;8.610;2023-09-12T05:46:48;101342.25;;;22.72;74.70
74778;BME280;63298;53.164;8.610;2023-09-12T05:49:14;101352.38;;;22.73;75.09
74778;BME280;63298;53.164;8.610;2023-09-12T05:51:39;101340.03;;;22.69;74.51
74778;BME280;63298;53.164;8.610;2023-09-12T05:54:05;101348.47;;;22.69;74.55
74778;BME280;63298;53.164;8.610;2023-09-12T05:56:30;101339.50;;;22.67;75.03
74778;BME280;63298;53.164;8.610;2023-09-12T05:58:56;101338.72;;;22.62;74.68
74778;BME280;63298;53.164;8.610;2023-09-12T06:01:21;101344.66;;;22.60;75.16
74778;BME280;63298;53.164;8.610;2023-09-12T06:03:46;101348.09;;;22.57;75.14
74778;BME280;63298;53.164;8.610;2023-09-12T06:06:12;101359.34;;;22.57;74.96
74778;BME280;63298;53.164;8.610;2023-09-12T06:08:37;101357.44;;;22.53;75.17
74778;BME280;63298;53.164;8.610;2023-09-12T06:11:03;101358.28;;;22.53;75.17
74778;BME280;63298;53.164;8.610;2023-09-12T06:13:28;101328.16;;;22.35;75.46
74778;BME280;63298;53.164;8.610;2023-09-12T06:15:54;101370.66;;;22.52;75.29
74778;BME280;63298;53.164;8.610;2023-09-12T06:18:19;101358.13;;;22.45;75.34
74778;BME280;63298;53.164;8.610;2023-09-12T06:20:44;101371.81;;;22.51;75.27
74778;BME280;63298;53.164;8.610;2023-09-12T06:23:10;101366.41;;;22.55;75.40
74778;BME280;63298;53.164;8.610;2023-09-12T06:25:35;101363.00;;;22.58;75.27
74778;BME280;63298;53.164;8.610;2023-09-12T06:28:00;101363.22;;;22.61;75.18
74778;BME280;63298;53.164;8.610;2023-09-12T06:30:26;101360.94;;;22.63;74.97
74778;BME280;63298;53.164;8.610;2023-09-12T06:32:51;101348.00;;;22.62;75.45
74778;BME280;63298;53.164;8.610;2023-09-12T06:35:16;101347.38;;;22.65;75.21
74778;BME280;63298;53.164;8.610;2023-09-12T06:37:42;101351.00;;;22.71;75.28
74778;BME280;63298;53.164;8.610;2023-09-12T06:40:07;101349.56;;;22.73;74.99
74778;BME280;63298;53.164;8.610;2023-09-12T06:42:33;101354.03;;;22.74;74.72
74778;BME280;63298;53.164;8.610;2023-09-12T06:44:58;101358.75;;;22.79;74.78
74778;BME280;63298;53.164;8.610;2023-09-12T06:47:24;101366.28;;;22.84;75.15
74778;BME280;63298;53.164;8.610;2023-09-12T06:49:50;101363.97;;;22.86;74.93
74778;BME280;63298;53.164;8.610;2023-09-12T06:52:15;101356.91;;;22.88;74.92
74778;BME280;63298;53.164;8.610;2023-09-12T06:54:41;101345.66;;;22.88;75.03
74778;BME280;63298;53.164;8.610;2023-09-12T06:57:06;101347.56;;;22.93;74.84
74778;BME280;63298;53.164;8.610;2023-09-12T06:59:32;101345.78;;;22.97;74.84
74778;BME280;63298;53.164;8.610;2023-09-12T07:01:57;101338.19;;;22.97;74.74
74778;BME280;63298;53.164;8.610;2023-09-12T07:04:22;101343.50;;;22.99;74.40
74778;BME280;63298;53.164;8.610;2023-09-12T07:06:48;101356.97;;;23.02;74.75
74778;BME280;63298;53.164;8.610;2023-09-12T07:09:13;101356.97;;;23.02;74.66
74778;BME280;63298;53.164;8.610;2023-09-12T07:11:38;101353.00;;;23.03;74.81
74778;BME280;63298;53.164;8.610;2023-09-12T07:14:03;101357.72;;;23.07;74.34
74778;BME280;63298;53.164;8.610;2023-09-12T07:16:31;101355.50;;;23.04;74.62
74778;BME280;63298;53.164;8.610;2023-09-12T07:18:56;101359.91;;;23.10;74.29
74778;BME280;63298;53.164;8.610;2023-09-12T07:21:21;101360.22;;;23.09;74.48
74778;BME280;63298;53.164;8.610;2023-09-12T07:23:48;101359.69;;;23.07;74.57
74778;BME280;63298;53.164;8.610;2023-09-12T07:26:13;101355.94;;;23.11;74.11
74778;BME280;63298;53.164;8.610;2023-09-12T07:28:39;101352.19;;;23.16;74.21
74778;BME280;63298;53.164;8.610;2023-09-12T07:31:04;101356.38;;;23.18;74.06
74778;BME280;63298;53.164;8.610;2023-09-12T07:33:29;101364.94;;;23.13;74.06
74778;BME280;63298;53.164;8.610;2023-09-12T07:35:55;101355.63;;;23.13;74.42
74778;BME280;63298;53.164;8.610;2023-09-12T07:38:21;101368.56;;;23.14;73.83
74778;BME280;63298;53.164;8.610;2023-09-12T07:40:46;101369.38;;;23.14;74.29
74778;BME280;63298;53.164;8.610;2023-09-12T07:43:12;101375.56;;;23.16;73.73
74778;BME280;63298;53.164;8.610;2023-09-12T07:45:37;101395.19;;;23.21;74.19
74778;BME280;63298;53.164;8.610;2023-09-12T07:48:07;101393.19;;;23.22;73.94
74778;BME280;63298;53.164;8.610;2023-09-12T07:50:34;101408.03;;;23.28;73.91
74778;BME280;63298;53.164;8.610;2023-09-12T07:52:59;101409.38;;;23.30;73.59
74778;BME280;63298;53.164;8.610;2023-09-12T07:55:25;101411.34;;;23.30;73.01
74778;BME280;63298;53.164;8.610;2023-09-12T07:57:50;101431.31;;;23.33;73.29
74778;BME280;63298;53.164;8.610;2023-09-12T08:00:15;101418.88;;;23.34;73.22
74778;BME280;63298;53.164;8.610;2023-09-12T08:02:41;101420.56;;;23.35;73.06
74778;BME280;63298;53.164;8.610;2023-09-12T08:05:06;101423.91;;;23.37;73.49
74778;BME280;63298;53.164;8.610;2023-09-12T08:07:32;101428.50;;;23.33;73.06
74778;BME280;63298;53.164;8.610;2023-09-12T08:09:58;101430.78;;;23.31;73.20
74778;BME280;63298;53.164;8.610;2023-09-12T08:12:24;101418.97;;;23.29;73.16
74778;BME280;63298;53.164;8.610;2023-09-12T08:14:50;101428.50;;;23.33;72.77
74778;BME280;63298;53.164;8.610;2023-09-12T08:17:16;101421.69;;;23.34;72.88
74778;BME280;63298;53.164;8.610;2023-09-12T08:19:41;101427.31;;;23.34;72.59
74778;BME280;63298;53.164;8.610;2023-09-12T08:22:07;101435.47;;;23.36;72.77
74778;BME280;63298;53.164;8.610;2023-09-12T08:24:34;101432.97;;;23.34;72.28
74778;BME280;63298;53.164;8.610;2023-09-12T08:26:59;101425.03;;;23.36;72.24
74778;BME280;63298;53.164;8.610;2023-09-12T08:29:25;101423.81;;;23.42;72.47
74778;BME280;63298;53.164;8.610;2023-09-12T08:31:50;101416.75;;;23.45;72.26
74778;BME280;63298;53.164;8.610;2023-09-12T08:34:16;101430.44;;;23.51;71.88
74778;BME280;63298;53.164;8.610;2023-09-12T08:36:41;101439.41;;;23.53;72.28
74778;BME280;63298;53.164;8.610;2023-09-12T08:39:11;101433.91;;;23.48;72.11
74778;BME280;63298;53.164;8.610;2023-09-12T08:41:36;101440.97;;;23.46;72.28
74778;BME280;63298;53.164;8.610;2023-09-12T08:44:02;101432.38;;;23.37;72.32
74778;BME280;63298;53.164;8.610;2023-09-12T08:46:27;101445.50;;;23.42;71.97
74778;BME280;63298;53.164;8.610;2023-09-12T08:48:56;101444.03;;;23.44;72.19
74778;BME280;63298;53.164;8.610;2023-09-12T08:51:22;101436.06;;;23.51;72.20
74778;BME280;63298;53.164;8.610;2023-09-12T08:53:48;101440.47;;;23.57;71.54
74778;BME280;63298;53.164;8.610;2023-09-12T08:56:13;101439.22;;;23.63;71.81
74778;BME280;63298;53.164;8.610;2023-09-12T08:58:39;101440.06;;;23.64;71.07
74778;BME280;63298;53.164;8.610;2023-09-12T09:01:06;101429.63;;;23.64;71.40
74778;BME280;63298;53.164;8.610;2023-09-12T09:03:33;101424.31;;;23.63;71.12
74778;BME280;63298;53.164;8.610;2023-09-12T09:05:59;101426.22;;;23.67;71.16
74778;BME280;63298;53.164;8.610;2023-09-12T09:08:26;101437.69;;;23.71;71.23
74778;BME280;63298;53.164;8.610;2023-09-12T09:11:01;101435.91;;;23.75;71.62
74778;BME280;63298;53.164;8.610;2023-09-12T09:13:26;101431.66;;;23.78;70.89
74778;BME280;63298;53.164;8.610;2023-09-12T09:16:24;101449.69;;;23.77;71.37
74778;BME280;63298;53.164;8.610;2023-09-12T09:19:00;101457.41;;;23.71;71.25
74778;BME280;63298;53.164;8.610;2023-09-12T09:21:27;101439.56;;;23.62;71.49
74778;BME280;63298;53.164;8.610;2023-09-12T09:23:54;101451.56;;;23.67;71.24
74778;BME280;63298;53.164;8.610;2023-09-12T09:26:20;101452.78;;;23.61;71.53
74778;BME280;63298;53.164;8.610;2023-09-12T09:29:00;101468.22;;;23.64;71.32
74778;BME280;63298;53.164;8.610;2023-09-12T09:31:25;101475.25;;;23.66;71.56
74778;BME280;63298;53.164;8.610;2023-09-12T09:33:51;101473.56;;;23.65;71.13
74778;BME280;63298;53.164;8.610;2023-09-12T09:36:16;101471.88;;;23.64;71.38
74778;BME280;63298;53.164;8.610;2023-09-12T09:38:41;101475.75;;;23.68;71.18
74778;BME280;63298;53.164;8.610;2023-09-12T09:41:07;101488.41;;;23.71;70.77
74778;BME280;63298;53.164;8.610;2023-09-12T09:43:32;101487.25;;;23.72;70.74
74778;BME280;63298;53.164;8.610;2023-09-12T09:45:58;101490.09;;;23.72;70.76
74778;BME280;63298;53.164;8.610;2023-09-12T09:48:24;101495.09;;;23.75;70.52
74778;BME280;63298;53.164;8.610;2023-09-12T09:50:50;101503.00;;;23.73;70.61
74778;BME280;63298;53.164;8.610;2023-09-12T09:53:16;101498.22;;;23.74;70.46
74778;BME280;63298;53.164;8.610;2023-09-12T09:55:41;101503.53;;;23.75;70.63
74778;BME280;63298;53.164;8.610;2023-09-12T09:58:06;101500.44;;;23.77;70.52
74778;BME280;63298;53.164;8.610;2023-09-12T10:00:34;101494.16;;;23.80;70.56
74778;BME280;63298;53.164;8.610;2023-09-12T10:03:04;101496.88;;;23.85;70.13
74778;BME280;63298;53.164;8.610;2023-09-12T10:05:31;101495.94;;;23.89;70.41
74778;BME280;63298;53.164;8.610;2023-09-12T10:07:57;101489.81;;;23.87;69.93
74778;BME280;63298;53.164;8.610;2023-09-12T10:10:24;101490.09;;;23.86;70.21
74778;BME280;63298;53.164;8.610;2023-09-12T10:12:51;101483.81;;;23.75;70.48
74778;BME280;63298;53.164;8.610;2023-09-12T10:15:19;101489.91;;;23.82;70.09
74778;BME280;63298;53.164;8.610;2023-09-12T10:18:08;101476.41;;;23.79;70.05
74778;BME280;63298;53.164;8.610;2023-09-12T10:20:38;101484.25;;;23.82;70.14
74778;BME280;63298;53.164;8.610;2023-09-12T10:23:11;101487.00;;;23.87;69.83
74778;BME280;63298;53.164;8.610;2023-09-12T10:25:40;101495.66;;;23.91;69.86
74778;BME280;63298;53.164;8.610;2023-09-12T10:28:05;101487.19;;;23.91;70.01
74778;BME280;63298;53.164;8.610;2023-09-12T10:30:31;101481.25;;;23.92;70.03
74778;BME280;63298;53.164;8.610;2023-09-12T10:32:57;101470.28;;;23.91;69.72
74778;BME280;63298;53.164;8.610;2023-09-12T10:35:25;101470.06;;;23.87;69.38
74778;BME280;63298;53.164;8.610;2023-09-12T10:37:52;101469.75;;;23.89;69.23
74778;BME280;63298;53.164;8.610;2023-09-12T10:40:19;101466.31;;;23.92;69.29
74778;BME280;63298;53.164;8.610;2023-09-12T10:42:45;101460.69;;;23.92;68.98
74778;BME280;63298;53.164;8.610;2023-09-12T10:45:12;101465.69;;;23.95;69.33
74778;BME280;63298;53.164;8.610;2023-09-12T10:47:39;101446.50;;;23.97;69.07
74778;BME280;63298;53.164;8.610;2023-09-12T10:53:26;101448.28;;;24.06;69.08
74778;BME280;63298;53.164;8.610;2023-09-12T11:01:27;101416.63;;;24.09;68.07
74778;BME280;63298;53.164;8.610;2023-09-12T11:03:52;101415.59;;;24.19;68.12
74778;BME280;63298;53.164;8.610;2023-09-12T11:06:30;101433.97;;;24.30;67.82
74778;BME280;63298;53.164;8.610;2023-09-12T11:11:55;101424.69;;;24.30;67.00
74778;BME280;63298;53.164;8.610;2023-09-12T11:14:20;101432.59;;;24.28;67.41
74778;BME280;63298;53.164;8.610;2023-09-12T11:19:46;101426.56;;;24.21;66.81
74778;BME280;63298;53.164;8.610;2023-09-12T11:22:23;101431.28;;;24.25;66.64
74778;BME280;63298;53.164;8.610;2023-09-12T11:24:48;101428.72;;;24.37;66.96
74778;BME280;63298;53.164;8.610;2023-09-12T11:27:14;101430.84;;;24.45;66.20
74778;BME280;63298;53.164;8.610;2023-09-12T11:29:40;101435.59;;;24.59;66.06
74778;BME280;63298;53.164;8.610;2023-09-12T11:32:06;101444.97;;;24.81;65.41
74778;BME280;63298;53.164;8.610;2023-09-12T11:34:41;101437.50;;;24.99;64.99
74778;BME280;63298;53.164;8.610;2023-09-12T11:37:08;101444.97;;;25.17;64.46
74778;BME280;63298;53.164;8.610;2023-09-12T11:39:35;101444.22;;;25.25;64.13
74778;BME280;63298;53.164;8.610;2023-09-12T11:42:02;101442.66;;;25.42;63.80
74778;BME280;63298;53.164;8.610;2023-09-12T11:44:28;101438.00;;;25.59;63.44
74778;BME280;63298;53.164;8.610;2023-09-12T11:46:54;101428.41;;;25.69;62.95
74778;BME280;63298;53.164;8.610;2023-09-12T11:49:19;101434.78;;;25.83;62.80
74778;BME280;63298;53.164;8.610;2023-09-12T11:51:54;101423.47;;;25.83;62.50
74778;BME280;63298;53.164;8.610;2023-09-12T11:54:24;101434.84;;;26.00;62.27
74778;BME280;63298;53.164;8.610;2023-09-12T11:56:50;101446.16;;;26.00;61.84
74778;BME280;63298;53.164;8.610;2023-09-12T11:59:16;101438.88;;;26.08;61.99
74778;BME280;63298;53.164;8.610;2023-09-12T12:01:41;101437.09;;;26.20;61.85
74778;BME280;63298;53.164;8.610;2023-09-12T12:04:06;101443.66;;;26.30;61.35
74778;BME280;63298;53.164;8.610;2023-09-12T12:06:32;101432.84;;;26.32;61.25
74778;BME280;63298;53.164;8.610;2023-09-12T12:08:57;101430.00;;;26.32;61.39
74778;BME280;63298;53.164;8.610;2023-09-12T12:11:27;101437.81;;;26.35;61.47
74778;BME280;63298;53.164;8.610;2023-09-12T12:13:53;101440.69;;;26.43;61.53
74778;BME280;63298;53.164;8.610;2023-09-12T12:16:18;101430.38;;;26.47;61.15
74778;BME280;63298;53.164;8.610;2023-09-12T12:18:43;101427.22;;;26.49;60.80
74778;BME280;63298;53.164;8.610;2023-09-12T12:21:09;101428.53;;;26.43;61.03
74778;BME280;63298;53.164;8.610;2023-09-12T12:23:34;101424.88;;;26.34;61.02
74778;BME280;63298;53.164;8.610;2023-09-12T12:26:05;101420.84;;;26.35;60.97
74778;BME280;63298;53.164;8.610;2023-09-12T12:28:31;101418.75;;;26.49;60.84
74778;BME280;63298;53.164;8.610;2023-09-12T12:30:56;101418.06;;;26.60;60.70
74778;BME280;63298;53.164;8.610;2023-09-12T12:33:22;101408.44;;;26.61;60.37
74778;BME280;63298;53.164;8.610;2023-09-12T12:35:47;101402.44;;;26.72;60.09
74778;BME280;63298;53.164;8.610;2023-09-12T12:38:13;101395.28;;;26.74;60.34
74778;BME280;63298;53.164;8.610;2023-09-12T12:40:38;101401.66;;;26.88;59.85
74778;BME280;63298;53.164;8.610;2023-09-12T12:43:04;101393.16;;;26.88;60.04
74778;BME280;63298;53.164;8.610;2023-09-12T12:45:29;101406.81;;;27.03;59.78
74778;BME280;63298;53.164;8.610;2023-09-12T12:47:58;101398.97;;;27.00;59.37
74778;BME280;63298;53.164;8.610;2023-09-12T12:50:24;101404.31;;;27.02;59.42
74778;BME280;63298;53.164;8.610;2023-09-12T12:52:49;101399.13;;;26.95;59.25
74778;BME280;63298;53.164;8.610;2023-09-12T12:55:15;101401.81;;;26.92;59.32
74778;BME280;63298;53.164;8.610;2023-09-12T12:57:42;101406.81;;;26.95;59.25
74778;BME280;63298;53.164;8.610;2023-09-12T13:00:14;101403.81;;;27.00;58.29
74778;BME280;63298;53.164;8.610;2023-09-12T13:02:41;101400.47;;;27.06;58.98
74778;BME280;63298;53.164;8.610;2023-09-12T13:05:20;101391.31;;;26.92;58.54